createdAt,value
2018-05-17T00:00:40.750Z,10.30
2018-05-17T00:01:40.674Z,10.60
2018-05-17T00:02:40.599Z,11.20
2018-05-17T00:03:40.511Z,10.30
2018-05-17T00:04:40.436Z,10.50
2018-05-17T00:05:40.365Z,10.20
2018-05-17T00:06:40.275Z,9.90
2018-05-17T00:07:40.199Z,12.50
2018-05-17T00:08:40.124Z,9.80
2018-05-17T00:09:40.037Z,13.00
2018-05-17T00:10:39.961Z,10.30
2018-05-17T00:11:39.886Z,10.20
2018-05-17T00:12:39.813Z,10.20
2018-05-17T00:13:39.727Z,10.80
2018-05-17T00:14:39.661Z,10.20
2018-05-17T00:15:39.576Z,10.70
2018-05-17T00:16:39.487Z,10.50
2018-05-17T00:17:39.437Z,10.70
2018-05-17T00:18:39.337Z,10.50
2018-05-17T00:19:39.258Z,10.70
2018-05-17T00:20:39.176Z,10.80
2018-05-17T00:21:39.101Z,10.90
2018-05-17T00:22:39.026Z,10.90
2018-05-17T00:23:38.938Z,11.20
2018-05-17T00:24:38.872Z,10.50
2018-05-17T00:25:38.788Z,11.10
2018-05-17T00:26:38.701Z,11.00
2018-05-17T00:27:38.627Z,11.20
2018-05-17T00:28:38.557Z,11.50
2018-05-17T00:29:38.463Z,11.10
2018-05-17T00:30:38.388Z,11.70
2018-05-17T00:31:38.328Z,10.70
2018-05-17T00:32:38.230Z,10.60
2018-05-17T00:33:38.154Z,10.70
2018-05-17T00:34:38.078Z,11.90
2018-05-17T00:35:37.990Z,12.20
2018-05-17T00:36:37.914Z,10.70
2018-05-17T00:37:37.840Z,12.30
2018-05-17T00:38:37.764Z,10.80
2018-05-17T00:39:37.678Z,11.30
2018-05-17T00:40:37.603Z,11.40
2018-05-17T00:41:37.528Z,10.80
2018-05-17T00:42:37.455Z,11.00
2018-05-17T00:43:37.365Z,11.40
2018-05-17T00:44:37.293Z,11.60
2018-05-17T00:45:37.215Z,11.50
2018-05-17T00:46:37.129Z,11.50
2018-05-17T00:47:37.058Z,11.90
2018-05-17T00:48:36.966Z,11.00
2018-05-17T00:49:36.891Z,11.90
2018-05-17T00:50:36.816Z,12.00
2018-05-17T00:51:36.730Z,11.50
2018-05-17T00:52:36.660Z,12.10
2018-05-17T00:53:36.580Z,11.70
2018-05-17T00:54:36.504Z,11.30
2018-05-17T00:55:36.420Z,12.40
2018-05-17T00:56:36.342Z,11.70
2018-05-17T00:57:36.266Z,11.70
2018-05-17T00:58:36.180Z,11.80
2018-05-17T00:59:36.106Z,11.90
2018-05-17T01:00:36.030Z,12.90
2018-05-17T01:01:35.942Z,11.80
2018-05-17T01:02:35.867Z,12.20
2018-05-17T01:03:35.796Z,12.30
2018-05-17T01:04:35.705Z,12.20
2018-05-17T01:05:35.631Z,12.10
2018-05-17T01:06:35.557Z,12.70
2018-05-17T01:07:35.467Z,12.00
2018-05-17T01:08:35.393Z,12.70
2018-05-17T01:09:35.318Z,12.70
2018-05-17T01:10:35.232Z,12.00
2018-05-17T01:11:35.156Z,12.90
2018-05-17T01:12:35.082Z,12.40
2018-05-17T01:13:34.997Z,13.90
2018-05-17T01:14:34.918Z,12.60
2018-05-17T01:15:34.845Z,12.30
2018-05-17T01:16:34.757Z,12.10
2018-05-17T01:17:34.683Z,12.90
2018-05-17T01:18:34.606Z,12.00
2018-05-17T01:19:34.522Z,11.90
2018-05-17T01:20:34.447Z,12.10
2018-05-17T01:21:34.369Z,12.00
2018-05-17T01:22:34.283Z,12.00
2018-05-17T01:23:34.212Z,12.70
2018-05-17T01:24:34.133Z,12.60
2018-05-17T01:25:34.044Z,11.60
2018-05-17T01:26:33.971Z,12.80
2018-05-17T01:27:33.909Z,12.20
2018-05-17T01:28:33.808Z,12.40
2018-05-17T01:29:33.739Z,13.10
2018-05-17T01:30:33.660Z,12.40
2018-05-17T01:31:33.571Z,12.50
2018-05-17T01:32:33.509Z,12.30
2018-05-17T01:33:33.420Z,12.20
2018-05-17T01:34:33.335Z,11.90
2018-05-17T01:35:33.259Z,13.00
2018-05-17T01:36:33.185Z,13.20
2018-05-17T01:37:33.098Z,12.60
2018-05-17T01:38:33.021Z,12.10
2018-05-17T01:39:32.947Z,12.30
2018-05-17T01:40:32.859Z,12.30
2018-05-17T01:41:32.785Z,12.30
2018-05-17T01:42:32.710Z,13.30
2018-05-17T01:43:32.622Z,12.50
2018-05-17T01:44:32.547Z,12.20
2018-05-17T01:45:32.472Z,12.50
2018-05-17T01:46:32.387Z,13.70
2018-05-17T01:47:32.310Z,12.70
2018-05-17T01:48:32.224Z,12.60
2018-05-17T01:49:32.148Z,12.80
2018-05-17T01:50:32.072Z,12.90
2018-05-17T01:51:31.986Z,13.50
2018-05-17T01:52:31.911Z,12.80
2018-05-17T01:53:31.837Z,12.70
2018-05-17T01:54:31.748Z,13.20
2018-05-17T01:55:31.673Z,12.60
2018-05-17T01:56:31.598Z,13.10
2018-05-17T01:57:31.511Z,13.30
2018-05-17T01:58:31.437Z,12.90
2018-05-17T01:59:31.363Z,12.60
2018-05-17T02:00:31.274Z,13.00
2018-05-17T02:01:31.199Z,12.80
2018-05-17T02:02:31.124Z,13.60
2018-05-17T02:03:31.038Z,13.70
2018-05-17T02:04:30.962Z,13.40
2018-05-17T02:05:30.875Z,12.70
2018-05-17T02:06:30.800Z,13.40
2018-05-17T02:07:30.725Z,12.70
2018-05-17T02:08:30.638Z,12.70
2018-05-17T02:09:30.562Z,13.20
2018-05-17T02:10:30.493Z,13.80
2018-05-17T02:11:30.400Z,14.00
2018-05-17T02:12:30.325Z,13.50
2018-05-17T02:13:30.250Z,12.90
2018-05-17T02:14:30.164Z,13.00
2018-05-17T02:15:30.089Z,13.90
2018-05-17T02:16:30.002Z,13.50
2018-05-17T02:17:29.941Z,12.30
2018-05-17T02:18:29.891Z,13.80
2018-05-17T02:19:29.768Z,13.30
2018-05-17T02:20:29.700Z,16.10
2018-05-17T02:21:29.693Z,13.50
2018-05-17T02:22:29.526Z,16.50
2018-05-17T02:23:29.451Z,14.60
2018-05-17T02:24:29.376Z,13.80
2018-05-17T02:25:29.290Z,15.30
2018-05-17T02:26:29.215Z,15.10
2018-05-17T02:27:29.128Z,16.20
2018-05-17T02:28:29.052Z,14.10
2018-05-17T02:29:28.992Z,14.80
2018-05-17T02:30:28.890Z,14.10
2018-05-17T02:31:28.822Z,15.90
2018-05-17T02:32:28.740Z,14.20
2018-05-17T02:33:28.652Z,15.30
2018-05-17T02:34:28.590Z,14.40
2018-05-17T02:35:28.503Z,15.20
2018-05-17T02:36:28.419Z,15.00
2018-05-17T02:37:28.341Z,14.90
2018-05-17T02:38:28.254Z,14.70
2018-05-17T02:39:28.192Z,14.60
2018-05-17T02:40:28.103Z,15.20
2018-05-17T02:41:28.019Z,14.50
2018-05-17T02:42:27.942Z,14.30
2018-05-17T02:43:27.856Z,15.10
2018-05-17T02:44:27.792Z,15.30
2018-05-17T02:45:27.704Z,15.40
2018-05-17T02:46:27.622Z,14.60
2018-05-17T02:47:27.542Z,15.70
2018-05-17T02:48:27.468Z,14.80
2018-05-17T02:49:27.392Z,15.20
2018-05-17T02:50:27.309Z,14.90
2018-05-17T02:51:27.229Z,14.90
2018-05-17T02:52:27.144Z,15.00
2018-05-17T02:53:27.068Z,14.90
2018-05-17T02:54:26.994Z,16.10
2018-05-17T02:55:26.908Z,15.90
2018-05-17T02:56:26.830Z,14.90
2018-05-17T02:57:26.743Z,16.10
2018-05-17T02:58:26.669Z,16.30
2018-05-17T02:59:26.594Z,16.40
2018-05-17T03:00:26.506Z,16.00
2018-05-17T03:01:26.433Z,15.50
2018-05-17T03:02:26.348Z,16.00
2018-05-17T03:03:26.296Z,16.40
2018-05-17T03:04:26.194Z,18.30
2018-05-17T03:05:26.106Z,16.00
2018-05-17T03:06:26.032Z,16.00
2018-05-17T03:07:25.945Z,17.20
2018-05-17T03:08:25.871Z,16.40
2018-05-17T03:09:25.799Z,15.80
2018-05-17T03:10:25.706Z,16.80
2018-05-17T03:11:25.638Z,16.20
2018-05-17T03:12:25.556Z,16.70
2018-05-17T03:13:25.471Z,17.10
2018-05-17T03:14:25.397Z,16.70
2018-05-17T03:15:25.307Z,17.00
2018-05-17T03:16:25.233Z,16.60
2018-05-17T03:17:25.161Z,16.30
2018-05-17T03:18:25.071Z,16.60
2018-05-17T03:19:24.996Z,17.00
2018-05-17T03:20:24.908Z,16.50
2018-05-17T03:21:24.832Z,18.10
2018-05-17T03:22:24.759Z,16.50
2018-05-17T03:23:24.673Z,16.20
2018-05-17T03:24:24.601Z,17.90
2018-05-17T03:25:24.510Z,17.00
2018-05-17T03:26:24.433Z,16.10
2018-05-17T03:27:24.358Z,16.60
2018-05-17T03:28:24.272Z,15.90
2018-05-17T03:29:24.197Z,16.40
2018-05-17T03:30:24.122Z,17.00
2018-05-17T03:31:24.036Z,17.00
2018-05-17T03:32:23.959Z,16.80
2018-05-17T03:33:23.872Z,16.60
2018-05-17T03:34:23.797Z,17.20
2018-05-17T03:35:23.722Z,17.90
2018-05-17T03:36:23.634Z,16.40
2018-05-17T03:37:23.560Z,17.20
2018-05-17T03:38:23.473Z,17.40
2018-05-17T03:39:23.398Z,18.40
2018-05-17T03:40:23.323Z,17.90
2018-05-17T03:41:23.235Z,18.20
2018-05-17T03:42:23.160Z,17.00
2018-05-17T03:43:23.074Z,17.60
2018-05-17T03:44:22.999Z,17.80
2018-05-17T03:45:22.925Z,17.50
2018-05-17T03:46:22.836Z,17.20
2018-05-17T03:47:22.761Z,18.50
2018-05-17T03:48:22.675Z,18.30
2018-05-17T03:49:22.602Z,18.30
2018-05-17T03:50:22.525Z,18.50
2018-05-17T03:51:22.436Z,18.50
2018-05-17T03:52:22.362Z,20.40
2018-05-17T03:53:22.286Z,18.40
2018-05-17T03:54:22.200Z,18.80
2018-05-17T03:55:22.125Z,19.40
2018-05-17T03:56:22.037Z,19.70
2018-05-17T03:57:21.962Z,19.00
2018-05-17T03:58:21.888Z,19.20
2018-05-17T03:59:21.801Z,18.40
2018-05-17T04:00:21.725Z,18.60
2018-05-17T04:01:21.702Z,18.60
2018-05-17T04:02:21.562Z,18.80
2018-05-17T04:03:21.482Z,19.50
2018-05-17T04:04:21.401Z,18.20
2018-05-17T04:05:21.332Z,18.40
2018-05-17T04:06:21.241Z,18.50
2018-05-17T04:07:21.176Z,18.40
2018-05-17T04:08:21.077Z,18.00
2018-05-17T04:09:21.006Z,19.00
2018-05-17T04:10:20.927Z,17.70
2018-05-17T04:11:20.838Z,17.90
2018-05-17T04:12:20.777Z,17.60
2018-05-17T04:13:20.689Z,18.20
2018-05-17T04:14:20.603Z,18.70
2018-05-17T04:15:20.527Z,18.70
2018-05-17T04:16:20.439Z,17.90
2018-05-17T04:17:20.366Z,18.30
2018-05-17T04:18:20.289Z,17.80
2018-05-17T04:19:20.203Z,17.80
2018-05-17T04:20:20.127Z,17.60
2018-05-17T04:21:20.042Z,17.80
2018-05-17T04:22:19.966Z,18.00
2018-05-17T04:23:19.882Z,16.90
2018-05-17T04:24:19.803Z,17.10
2018-05-17T04:25:19.728Z,17.80
2018-05-17T04:26:19.640Z,17.10
2018-05-17T04:27:19.565Z,16.70
2018-05-17T04:28:19.479Z,17.30
2018-05-17T04:29:19.492Z,16.90
2018-05-17T04:30:19.338Z,17.90
2018-05-17T04:31:19.243Z,16.90
2018-05-17T04:32:19.166Z,16.90
2018-05-17T04:33:19.091Z,16.30
2018-05-17T04:34:19.005Z,15.70
2018-05-17T04:35:18.997Z,16.10
2018-05-17T04:36:18.842Z,14.60
2018-05-17T04:37:18.780Z,15.50
2018-05-17T04:38:18.691Z,15.80
2018-05-17T04:39:18.605Z,14.80
2018-05-17T04:40:18.530Z,14.90
2018-05-17T04:41:18.442Z,15.00
2018-05-17T04:42:18.368Z,14.50
2018-05-17T04:43:18.292Z,13.80
2018-05-17T04:44:18.206Z,14.10
2018-05-17T04:45:18.131Z,14.00
2018-05-17T04:46:18.055Z,13.40
2018-05-17T04:47:17.971Z,13.30
2018-05-17T04:48:17.893Z,14.50
2018-05-17T04:49:17.807Z,13.10
2018-05-17T04:50:17.732Z,12.30
2018-05-17T04:51:17.656Z,12.70
2018-05-17T04:52:17.570Z,14.10
2018-05-17T04:53:17.494Z,13.20
2018-05-17T04:54:17.418Z,13.00
2018-05-17T04:55:17.332Z,12.60
2018-05-17T04:56:17.258Z,12.70
2018-05-17T04:57:17.182Z,12.90
2018-05-17T04:58:17.094Z,13.10
2018-05-17T04:59:17.021Z,12.80
2018-05-17T05:00:16.943Z,12.80
2018-05-17T05:01:16.859Z,12.90
2018-05-17T05:02:16.783Z,13.80
2018-05-17T05:03:16.709Z,13.40
2018-05-17T05:04:16.619Z,12.70
2018-05-17T05:05:16.548Z,13.40
2018-05-17T05:06:16.471Z,12.50
2018-05-17T05:07:16.384Z,13.00
2018-05-17T05:08:16.310Z,13.10
2018-05-17T05:09:16.233Z,12.10
2018-05-17T05:10:16.145Z,12.00
2018-05-17T05:11:16.083Z,12.50
2018-05-17T05:12:15.995Z,13.10
2018-05-17T05:13:15.909Z,12.30
2018-05-17T05:14:15.834Z,13.00
2018-05-17T05:15:15.760Z,12.70
2018-05-17T05:16:15.687Z,15.90
2018-05-17T05:17:15.595Z,13.10
2018-05-17T05:18:15.522Z,12.40
2018-05-17T05:19:15.434Z,13.80
2018-05-17T05:20:15.359Z,13.00
2018-05-17T05:21:15.285Z,12.70
2018-05-17T05:22:15.216Z,13.90
2018-05-17T05:23:15.122Z,13.00
2018-05-17T05:24:15.047Z,12.70
2018-05-17T05:25:15.055Z,13.40
2018-05-17T05:26:14.884Z,12.80
2018-05-17T05:27:14.815Z,13.30
2018-05-17T05:28:14.735Z,13.50
2018-05-17T05:29:14.648Z,12.20
2018-05-17T05:30:14.573Z,12.90
2018-05-17T05:31:14.499Z,12.70
2018-05-17T05:32:14.423Z,12.60
2018-05-17T05:33:14.336Z,12.90
2018-05-17T05:34:14.261Z,12.20
2018-05-17T05:35:14.186Z,12.80
2018-05-17T05:36:14.098Z,12.50
2018-05-17T05:37:14.023Z,12.20
2018-05-17T05:38:13.948Z,13.40
2018-05-17T05:39:13.862Z,13.40
2018-05-17T05:40:13.787Z,12.70
2018-05-17T05:41:13.712Z,14.30
2018-05-17T05:42:13.637Z,11.60
2018-05-17T05:43:13.608Z,12.30
2018-05-17T05:44:13.475Z,13.70
2018-05-17T05:45:13.398Z,13.40
2018-05-17T05:46:13.324Z,11.40
2018-05-17T05:47:13.237Z,13.20
2018-05-17T05:48:13.163Z,12.20
2018-05-17T05:49:13.142Z,12.90
2018-05-17T05:50:12.999Z,12.50
2018-05-17T05:51:12.924Z,12.10
2018-05-17T05:52:12.851Z,14.50
2018-05-17T05:53:12.764Z,11.70
2018-05-17T05:54:12.688Z,12.20
2018-05-17T05:55:12.614Z,11.50
2018-05-17T05:56:12.540Z,14.20
2018-05-17T05:57:12.453Z,13.10
2018-05-17T05:58:12.378Z,15.50
2018-05-17T05:59:12.302Z,13.90
2018-05-17T06:00:12.217Z,12.00
2018-05-17T06:01:12.144Z,11.90
2018-05-17T06:02:12.065Z,12.30
2018-05-17T06:03:11.978Z,13.40
2018-05-17T06:04:11.902Z,12.70
2018-05-17T06:05:11.826Z,14.20
2018-05-17T06:06:11.752Z,11.50
2018-05-17T06:07:11.664Z,12.30
2018-05-17T06:08:11.590Z,11.80
2018-05-17T06:09:11.518Z,12.20
2018-05-17T06:10:11.441Z,12.10
2018-05-17T06:11:11.356Z,11.40
2018-05-17T06:12:11.290Z,13.20
2018-05-17T06:13:11.207Z,12.90
2018-05-17T06:14:11.122Z,11.90
2018-05-17T06:15:11.042Z,12.10
2018-05-17T06:16:10.967Z,13.20
2018-05-17T06:17:10.890Z,11.30
2018-05-17T06:18:10.802Z,13.20
2018-05-17T06:19:10.728Z,11.10
2018-05-17T06:20:10.652Z,11.90
2018-05-17T06:21:10.566Z,11.50
2018-05-17T06:22:10.490Z,12.40
2018-05-17T06:23:10.421Z,12.30
2018-05-17T06:24:10.345Z,11.50
2018-05-17T06:25:10.254Z,12.80
2018-05-17T06:26:10.192Z,11.10
2018-05-17T06:27:10.103Z,12.70
2018-05-17T06:28:10.029Z,11.80
2018-05-17T06:29:09.943Z,10.80
2018-05-17T06:30:09.869Z,11.20
2018-05-17T06:31:09.793Z,10.30
2018-05-17T06:32:09.719Z,10.80
2018-05-17T06:33:09.642Z,13.40
2018-05-17T06:34:09.554Z,11.30
2018-05-17T06:35:09.480Z,13.00
2018-05-17T06:36:09.405Z,12.70
2018-05-17T06:37:09.329Z,11.10
2018-05-17T06:38:09.244Z,10.30
2018-05-17T06:39:09.168Z,11.60
2018-05-17T06:40:09.094Z,11.10
2018-05-17T06:41:09.022Z,12.30
2018-05-17T06:42:08.944Z,10.90
2018-05-17T06:43:08.855Z,10.70
2018-05-17T06:44:08.781Z,13.30
2018-05-17T06:45:08.707Z,11.20
2018-05-17T06:46:08.631Z,10.60
2018-05-17T06:47:08.556Z,10.90
2018-05-17T06:48:08.470Z,11.60
2018-05-17T06:49:08.395Z,12.90
2018-05-17T06:50:08.320Z,11.40
2018-05-17T06:51:08.245Z,11.70
2018-05-17T06:52:08.169Z,11.00
2018-05-17T06:53:08.082Z,10.40
2018-05-17T06:54:08.007Z,11.40
2018-05-17T06:55:07.933Z,11.30
2018-05-17T06:56:07.857Z,12.10
2018-05-17T06:57:07.781Z,10.40
2018-05-17T06:58:07.695Z,12.20
2018-05-17T06:59:07.620Z,10.90
2018-05-17T07:00:07.546Z,11.70
2018-05-17T07:01:07.483Z,12.00
2018-05-17T07:02:07.396Z,12.30
2018-05-17T07:03:07.307Z,13.70
2018-05-17T07:04:07.245Z,10.90
2018-05-17T07:05:07.157Z,12.30
2018-05-17T07:06:07.085Z,10.50
2018-05-17T07:07:07.007Z,13.30
2018-05-17T07:08:06.922Z,11.80
2018-05-17T07:09:06.846Z,11.30
2018-05-17T07:10:06.772Z,11.90
2018-05-17T07:11:06.697Z,10.70
2018-05-17T07:12:06.622Z,10.50
2018-05-17T07:13:06.546Z,11.90
2018-05-17T07:14:06.458Z,11.60
2018-05-17T07:15:06.384Z,12.60
2018-05-17T07:16:06.310Z,10.40
2018-05-17T07:17:06.248Z,13.40
2018-05-17T07:18:06.273Z,9.80
2018-05-17T07:19:06.072Z,10.30
2018-05-17T07:20:06.248Z,11.10
2018-05-17T07:21:05.923Z,10.30
2018-05-17T07:22:05.848Z,11.10
2018-05-17T07:23:05.773Z,10.70
2018-05-17T07:24:05.786Z,11.40
2018-05-17T07:25:05.611Z,11.00
2018-05-17T07:26:05.535Z,11.80
2018-05-17T07:27:05.460Z,9.40
2018-05-17T07:28:05.388Z,11.70
2018-05-17T07:29:05.311Z,11.20
2018-05-17T07:30:05.236Z,8.50
2018-05-17T07:31:05.160Z,10.30
2018-05-17T07:32:05.103Z,11.50
2018-05-17T07:33:05.105Z,9.80
2018-05-17T07:34:04.936Z,9.50
2018-05-17T07:35:04.861Z,12.10
2018-05-17T07:36:04.787Z,10.10
2018-05-17T07:37:04.711Z,9.20
2018-05-17T07:38:04.637Z,8.80
2018-05-17T07:39:04.562Z,11.30
2018-05-17T07:40:04.738Z,8.90
2018-05-17T07:41:04.412Z,10.60
2018-05-17T07:42:04.338Z,10.80
2018-05-17T07:43:04.262Z,8.80
2018-05-17T07:44:04.191Z,10.40
2018-05-17T07:45:04.115Z,9.80
2018-05-17T07:46:04.038Z,8.70
2018-05-17T07:47:03.964Z,10.40
2018-05-17T07:48:03.900Z,9.70
2018-05-17T07:49:03.827Z,11.40
2018-05-17T07:50:04.002Z,9.00
2018-05-17T07:51:03.677Z,13.40
2018-05-17T07:52:03.678Z,10.50
2018-05-17T07:53:03.539Z,9.50
2018-05-17T07:54:03.464Z,8.90
2018-05-17T07:55:03.391Z,9.60
2018-05-17T07:56:03.327Z,9.10
2018-05-17T07:57:03.240Z,10.00
2018-05-17T07:58:03.178Z,9.30
2018-05-17T07:59:03.104Z,9.50
2018-05-17T08:00:03.327Z,10.20
2018-05-17T08:01:02.953Z,10.50
2018-05-17T08:02:02.890Z,11.80
2018-05-17T08:03:02.816Z,9.90
2018-05-17T08:04:02.739Z,11.90
2018-05-17T08:05:02.665Z,10.70
2018-05-17T08:06:02.592Z,10.80
2018-05-17T08:07:02.529Z,10.90
2018-05-17T08:08:02.457Z,9.10
2018-05-17T08:09:02.384Z,10.70
2018-05-17T08:10:02.315Z,9.20
2018-05-17T08:11:02.240Z,10.00
2018-05-17T08:12:02.166Z,9.60
2018-05-17T08:13:02.091Z,7.60
2018-05-17T08:14:02.031Z,10.70
2018-05-17T08:15:01.955Z,8.90
2018-05-17T08:16:01.881Z,8.10
2018-05-17T08:17:01.824Z,12.00
2018-05-17T08:18:01.751Z,8.30
2018-05-17T08:19:01.667Z,6.40
2018-05-17T08:20:01.860Z,9.50
2018-05-17T08:21:01.530Z,11.90
2018-05-17T08:22:01.481Z,8.30
2018-05-17T08:23:01.392Z,9.40
2018-05-17T08:24:01.331Z,8.50
2018-05-17T08:25:01.257Z,9.60
2018-05-17T08:26:01.181Z,9.20
2018-05-17T08:27:01.117Z,11.90
2018-05-17T08:28:01.043Z,10.20
2018-05-17T08:29:01.072Z,8.00
2018-05-17T08:30:00.906Z,10.30
2018-05-17T08:31:00.843Z,13.30
2018-05-17T08:32:00.768Z,12.40
2018-05-17T08:33:00.706Z,9.40
2018-05-17T08:34:00.632Z,10.90
2018-05-17T08:35:00.557Z,12.10
2018-05-17T08:36:00.580Z,11.80
2018-05-17T08:37:00.419Z,10.40
2018-05-17T08:38:00.344Z,8.10
2018-05-17T08:39:00.282Z,11.70
2018-05-17T08:40:00.208Z,11.70
2018-05-17T08:41:00.144Z,12.00
2018-05-17T08:42:00.069Z,12.50
2018-05-17T08:42:59.997Z,13.50
2018-05-17T08:43:59.934Z,12.70
2018-05-17T08:44:59.857Z,11.40
2018-05-17T08:45:59.794Z,12.50
2018-05-17T08:46:59.722Z,13.10
2018-05-17T08:47:59.644Z,11.40
2018-05-17T08:48:59.588Z,13.50
2018-05-17T08:49:59.509Z,10.30
2018-05-17T08:50:59.433Z,13.50
2018-05-17T08:51:59.371Z,15.00
2018-05-17T08:52:59.296Z,11.00
2018-05-17T08:53:59.234Z,11.90
2018-05-17T08:54:59.159Z,13.80
2018-05-17T08:55:59.096Z,11.80
2018-05-17T08:56:59.021Z,11.60
2018-05-17T08:57:58.958Z,13.00
2018-05-17T08:58:58.886Z,14.20
2018-05-17T08:59:58.812Z,11.90
2018-05-17T09:00:58.759Z,10.90
2018-05-17T09:01:58.684Z,13.20
2018-05-17T09:02:58.610Z,13.50
2018-05-17T09:03:58.560Z,11.00
2018-05-17T09:04:58.471Z,11.20
2018-05-17T09:05:58.410Z,12.50
2018-05-17T09:06:58.335Z,10.40
2018-05-17T09:07:58.272Z,12.20
2018-05-17T09:08:58.197Z,12.80
2018-05-17T09:09:58.138Z,13.30
2018-05-17T09:10:58.060Z,12.30
2018-05-17T09:11:57.997Z,13.50
2018-05-17T09:12:57.923Z,11.60
2018-05-17T09:13:57.861Z,12.70
2018-05-17T09:14:57.814Z,14.30
2018-05-17T09:15:57.723Z,13.20
2018-05-17T09:16:57.649Z,11.00
2018-05-17T09:17:57.589Z,13.70
2018-05-17T09:18:57.566Z,16.10
2018-05-17T09:19:57.448Z,12.30
2018-05-17T09:20:57.374Z,13.10
2018-05-17T09:21:57.311Z,12.40
2018-05-17T09:22:57.237Z,12.30
2018-05-17T09:23:57.174Z,12.70
2018-05-17T09:24:57.098Z,12.90
2018-05-17T09:25:57.040Z,13.90
2018-05-17T09:26:56.962Z,14.80
2018-05-17T09:27:56.899Z,11.90
2018-05-17T09:28:56.824Z,11.40
2018-05-17T09:29:56.762Z,14.70
2018-05-17T09:30:56.690Z,12.70
2018-05-17T09:31:56.622Z,14.20
2018-05-17T09:32:56.551Z,12.30
2018-05-17T09:33:56.475Z,12.60
2018-05-17T09:34:56.414Z,16.90
2018-05-17T09:35:56.339Z,12.70
2018-05-17T09:36:56.275Z,13.80
2018-05-17T09:37:56.200Z,11.60
2018-05-17T09:38:56.125Z,12.50
2018-05-17T09:39:56.068Z,11.50
2018-05-17T09:40:56.050Z,14.80
2018-05-17T09:41:55.925Z,10.70
2018-05-17T09:42:55.850Z,11.00
2018-05-17T09:43:55.775Z,9.40
2018-05-17T09:44:55.714Z,12.50
2018-05-17T09:45:55.639Z,10.60
2018-05-17T09:46:55.564Z,12.70
2018-05-17T09:47:55.501Z,13.40
2018-05-17T09:48:55.426Z,10.40
2018-05-17T09:49:55.351Z,11.80
2018-05-17T09:50:55.277Z,13.30
2018-05-17T09:51:55.214Z,11.40
2018-05-17T09:52:55.139Z,10.60
2018-05-17T09:53:55.064Z,11.60
2018-05-17T09:54:55.038Z,12.90
2018-05-17T09:55:54.926Z,10.00
2018-05-17T09:56:54.852Z,14.20
2018-05-17T09:57:54.793Z,10.40
2018-05-17T09:58:54.714Z,12.50
2018-05-17T09:59:54.641Z,12.60
2018-05-17T10:00:54.569Z,10.80
2018-05-17T10:01:54.501Z,13.70
2018-05-17T10:02:54.440Z,13.10
2018-05-17T10:03:54.352Z,13.50
2018-05-17T10:04:54.278Z,13.50
2018-05-17T10:05:54.215Z,13.10
2018-05-17T10:06:54.140Z,10.60
2018-05-17T10:07:54.071Z,12.60
2018-05-17T10:08:54.089Z,12.50
2018-05-17T10:09:53.945Z,12.10
2018-05-17T10:10:53.853Z,12.20
2018-05-17T10:11:53.778Z,14.10
2018-05-17T10:12:53.716Z,15.60
2018-05-17T10:13:53.642Z,12.80
2018-05-17T10:14:53.572Z,12.00
2018-05-17T10:15:53.492Z,16.60
2018-05-17T10:16:53.442Z,16.80
2018-05-17T10:17:53.353Z,14.80
2018-05-17T10:18:53.285Z,11.60
2018-05-17T10:19:53.204Z,14.50
2018-05-17T10:20:53.144Z,11.70
2018-05-17T10:21:53.085Z,12.80
2018-05-17T10:22:52.991Z,16.60
2018-05-17T10:23:52.918Z,14.40
2018-05-17T10:24:52.855Z,15.10
2018-05-17T10:25:52.780Z,12.90
2018-05-17T10:26:52.704Z,15.80
2018-05-17T10:27:52.633Z,12.10
2018-05-17T10:28:52.556Z,14.60
2018-05-17T10:29:52.497Z,14.80
2018-05-17T10:30:52.419Z,13.70
2018-05-17T10:31:52.343Z,12.60
2018-05-17T10:32:52.274Z,12.00
2018-05-17T10:33:52.205Z,12.90
2018-05-17T10:34:52.143Z,12.70
2018-05-17T10:35:52.055Z,13.00
2018-05-17T10:36:51.984Z,13.40
2018-05-17T10:37:51.918Z,12.00
2018-05-17T10:38:51.846Z,12.10
2018-05-17T10:39:51.769Z,13.80
2018-05-17T10:40:51.693Z,16.00
2018-05-17T10:41:51.631Z,14.80
2018-05-17T10:42:51.556Z,16.60
2018-05-17T10:43:51.481Z,16.90
2018-05-17T10:44:51.419Z,16.10
2018-05-17T10:45:51.344Z,16.20
2018-05-17T10:46:51.270Z,12.70
2018-05-17T10:47:51.207Z,13.70
2018-05-17T10:48:51.139Z,14.30
2018-05-17T10:49:51.073Z,11.20
2018-05-17T10:50:50.997Z,13.30
2018-05-17T10:51:50.921Z,13.90
2018-05-17T10:52:50.859Z,14.80
2018-05-17T10:53:50.782Z,14.40
2018-05-17T10:54:50.728Z,14.10
2018-05-17T10:55:50.646Z,14.20
2018-05-17T10:56:50.582Z,12.90
2018-05-17T10:57:50.508Z,13.50
2018-05-17T10:58:50.446Z,14.70
2018-05-17T10:59:50.373Z,11.30
2018-05-17T11:00:50.308Z,12.60
2018-05-17T11:01:50.233Z,16.20
2018-05-17T11:02:50.174Z,12.20
2018-05-17T11:03:50.108Z,15.60
2018-05-17T11:04:50.034Z,14.00
2018-05-17T11:05:49.972Z,13.70
2018-05-17T11:06:49.909Z,15.20
2018-05-17T11:07:49.833Z,13.60
2018-05-17T11:08:49.772Z,9.50
2018-05-17T11:09:49.722Z,11.50
2018-05-17T11:10:49.634Z,11.40
2018-05-17T11:11:49.573Z,13.40
2018-05-17T11:12:49.522Z,12.50
2018-05-17T11:13:49.435Z,14.90
2018-05-17T11:14:49.376Z,10.00
2018-05-17T11:15:49.310Z,14.10
2018-05-17T11:16:49.248Z,12.90
2018-05-17T11:17:49.173Z,12.80
2018-05-17T11:18:49.110Z,12.30
2018-05-17T11:19:49.049Z,10.70
2018-05-17T11:20:48.985Z,14.90
2018-05-17T11:21:48.911Z,11.70
2018-05-17T11:22:48.849Z,11.50
2018-05-17T11:23:48.789Z,12.90
2018-05-17T11:24:48.724Z,15.40
2018-05-17T11:25:48.678Z,11.90
2018-05-17T11:26:48.585Z,11.70
2018-05-17T11:27:48.524Z,12.70
2018-05-17T11:28:48.461Z,12.40
2018-05-17T11:29:48.401Z,11.50
2018-05-17T11:30:48.327Z,14.70
2018-05-17T11:31:48.261Z,13.60
2018-05-17T11:32:48.200Z,13.10
2018-05-17T11:33:48.136Z,10.90
2018-05-17T11:34:48.074Z,11.00
2018-05-17T11:35:48.012Z,14.10
2018-05-17T11:36:47.937Z,12.40
2018-05-17T11:37:47.875Z,12.30
2018-05-17T11:38:47.812Z,11.80
2018-05-17T11:40:47.687Z,13.00
2018-05-17T11:41:47.613Z,11.30
2018-05-17T11:42:47.551Z,14.80
2018-05-17T11:43:47.492Z,11.70
2018-05-17T11:44:47.434Z,14.60
2018-05-17T11:45:47.351Z,13.50
2018-05-17T11:46:47.288Z,12.10
2018-05-17T11:47:47.226Z,14.70
2018-05-17T11:48:47.154Z,12.60
2018-05-17T11:49:47.088Z,13.20
2018-05-17T11:50:47.027Z,15.90
2018-05-17T11:51:46.952Z,15.40
2018-05-17T11:52:46.888Z,10.80
2018-05-17T11:53:46.816Z,13.80
2018-05-17T11:54:46.758Z,16.60
2018-05-17T11:55:46.689Z,10.60
2018-05-17T11:56:46.626Z,13.30
2018-05-17T11:57:46.554Z,17.10
2018-05-17T11:58:46.493Z,11.50
2018-05-17T11:59:46.415Z,14.30
2018-05-17T12:00:46.354Z,12.70
2018-05-17T12:01:46.289Z,10.20
2018-05-17T12:02:46.262Z,14.60
2018-05-17T12:03:46.154Z,11.70
2018-05-17T12:04:46.098Z,14.30
2018-05-17T12:05:46.015Z,13.50
2018-05-17T12:06:45.953Z,11.70
2018-05-17T12:07:45.891Z,11.70
2018-05-17T12:08:45.816Z,11.40
2018-05-17T12:09:45.753Z,11.40
2018-05-17T12:10:45.690Z,10.20
2018-05-17T12:11:45.628Z,12.90
2018-05-17T12:12:45.553Z,10.70
2018-05-17T12:13:45.490Z,11.90
2018-05-17T12:14:45.428Z,12.80
2018-05-17T12:15:45.354Z,12.60
2018-05-17T12:16:45.295Z,12.30
2018-05-17T12:17:45.230Z,13.10
2018-05-17T12:18:45.154Z,11.40
2018-05-17T12:19:45.106Z,12.80
2018-05-17T12:20:45.033Z,10.20
2018-05-17T12:21:44.966Z,10.70
2018-05-17T12:22:44.891Z,11.30
2018-05-17T12:23:44.829Z,14.90
2018-05-17T12:24:44.767Z,12.70
2018-05-17T12:25:44.706Z,10.80
2018-05-17T12:26:44.638Z,12.80
2018-05-17T12:27:44.567Z,12.80
2018-05-17T12:28:44.505Z,11.20
2018-05-17T12:29:44.431Z,11.90
2018-05-17T12:30:44.367Z,12.00
2018-05-17T12:31:44.367Z,15.10
2018-05-17T12:32:44.231Z,13.60
2018-05-17T12:33:44.168Z,10.60
2018-05-17T12:34:44.095Z,12.10
2018-05-17T12:35:44.031Z,14.40
2018-05-17T12:36:43.969Z,11.10
2018-05-17T12:37:43.893Z,11.50
2018-05-17T12:38:43.832Z,13.00
2018-05-17T12:39:43.772Z,11.20
2018-05-17T12:40:43.694Z,9.70
2018-05-17T12:41:43.632Z,13.00
2018-05-17T12:42:43.569Z,14.40
2018-05-17T12:43:43.493Z,12.20
2018-05-17T12:44:43.431Z,14.70
2018-05-17T12:45:43.368Z,13.10
2018-05-17T12:46:43.294Z,11.00
2018-05-17T12:47:43.232Z,13.90
2018-05-17T12:48:43.168Z,11.50
2018-05-17T12:49:43.094Z,12.90
2018-05-17T12:50:43.036Z,11.80
2018-05-17T12:51:42.971Z,12.90
2018-05-17T12:52:42.897Z,12.50
2018-05-17T12:53:42.832Z,14.00
2018-05-17T12:54:42.769Z,10.70